Weather observations for the past three days for
Oakdale, Allen Parish Airport
Imperial (Metric)
Date Time (cdt) Wind (mph) Vis. (mi.) Weather Sky Cond. Temperature (ºF) Relative Humidity Wind Chill (°F) Heat Index (°F) Pressure Precipitation (in)
Air Dwpt 6 hour altimeter (in) sea level (mb) 1 hr 3 hr 6 hr
Max. Min.
04 19:55 Calm 10.00 Fair CLR 80.6 75.2 84% 86 29.92 0.0
04 19:35 Calm 10.00 Fair CLR 82.4 75.2 79% 89 29.92 0.0
04 19:15 Calm 10.00 Fair CLR 84.2 73.4 70% 91 29.92 0.0
04 18:55 Calm 10.00 Fair CLR 86 73.4 66% 93 29.92 0.0
04 18:35 Calm 10.00 Fair CLR 86 71.6 62% 92 29.92 0.0
04 18:15 Calm 10.00 Fair CLR 84.2 71.6 66% 90 29.91 0.0
04 17:55 S 6 10.00 Fair CLR 86 71.6 62% 92 29.9 0.0
04 17:35 S 6 10.00 Fair CLR 91.4 73.4 56% 100 29.9 0.0
04 17:15 Calm 10.00 Fair CLR 91.4 71.6 52% 99 29.9 0.0
04 16:55 Calm 10.00 Partly Cloudy BKN044 SCT049 91.4 71.6 52% 99 29.9 0.0
04 16:35 E 5 10.00 Mostly Cloudy SCT042 BKN049 93.2 71.6 50% 101 29.9 0.0
04 16:15 S 6 10.00 Partly Cloudy SCT049 93.2 73.4 53% 103 29.91 0.0
04 15:55 SE 6 10.00 Partly Cloudy SCT047 91.4 73.4 56% 100 29.92 0.0
04 15:35 Calm 10.00 Fair CLR 95 71.6 47% 103 29.92 0.0
04 15:15 Calm 10.00 Partly Cloudy SCT110 93.2 71.6 50% 101 29.93 0.0
04 14:55 S 3 10.00 Partly Cloudy SCT047 SCT065 SCT100 91.4 73.4 56% 100 29.94 0.0
04 14:35 E 6 10.00 Overcast BKN047 OVC065 89.6 71.6 55% 96 29.95 0.0
04 14:15 E 5 10.00 Mostly Cloudy BKN045 BKN050 95 69.8 44% 101 29.95 0.0
04 13:55 Calm 10.00 Partly Cloudy SCT050 93.2 71.6 50% 101 29.95 0.0
04 13:35 Calm 10.00 Fair CLR 91.4 69.8 49% 97 29.96 0.0
04 13:15 N 3 10.00 Fair CLR 89.6 71.6 55% 96 29.96 0.0
04 12:55 Calm 10.00 Partly Cloudy SCT049 SCT055 91.4 71.6 52% 99 29.97 0.0
04 12:35 Calm 10.00 Partly Cloudy SCT055 89.6 71.6 55% 96 29.98 0.0
04 12:15 Calm 10.00 Partly Cloudy SCT055 89.6 71.6 55% 96 29.99 0.0
04 11:55 Calm 10.00 Partly Cloudy SCT033 89.6 71.6 55% 96 29.99 0.0
04 11:35 Calm 10.00 Partly Cloudy SCT029 SCT036 89.6 73.4 59% 98 29.99 0.0
04 11:15 N 5 10.00 Partly Cloudy SCT029 SCT036 89.6 73.4 59% 98 29.99 0.0
04 10:55 Calm 10.00 Fair CLR 87.8 73.4 62% 96 29.99 0.0
04 10:35 Calm 10.00 Fair CLR 87.8 73.4 62% 96 30 0.0
04 10:15 Calm 10.00 Fair CLR 86 73.4 66% 93 29.99 0.0
04 09:55 Calm 10.00 Fair CLR 86 73.4 66% 93 29.99 0.0
04 09:35 Calm 10.00 Fair CLR 84.2 73.4 70% 91 29.99 0.0
04 09:15 Calm 10.00 Fair CLR 82.4 75.2 79% 89 29.99 0.0
04 08:55 Calm 10.00 Fair CLR 78.8 75.2 89% 82 29.99 0.0
04 08:35 Calm 10.00 Fair CLR 77 73.4 89% 78 29.98 0.0
04 08:15 Calm 10.00 Fair CLR 75.2 71.6 89% 75 29.98 0.0
04 07:55 Calm 10.00 Fair CLR 73.4 69.8 89% 29.98 0.0
04 07:35 Calm 10.00 Fair CLR 71.6 68 88% 29.97 0.0
04 07:15 Calm 7.00 Fair CLR 71.6 68 88% 29.97 0.0
04 06:55 Calm 7.00 Fair CLR 71.6 68 88% 29.96 0.0
04 06:35 Calm 10.00 Fair CLR 71.6 68 88% 29.96 0.0
04 06:15 Calm 10.00 Fair CLR 71.6 68 88% 29.96 0.0
04 05:55 Calm 10.00 Fair CLR 71.6 68 88% 29.95 0.0
04 05:35 Calm 10.00 Fair CLR 71.6 68 88% 29.95 0.0
04 05:15 Calm 5.00 Fog/Mist SCT002 71.6 68 88% 29.95 0.0
04 04:55 Calm 10.00 Mostly Cloudy BKN002 71.6 69.8 94% 29.95 0.0
04 04:35 Calm 10.00 Fair CLR 71.6 68 88% 29.95 0.0
04 04:15 Calm 5.00 Fog/Mist CLR 71.6 68 88% 29.95 0.0
04 03:55 Calm 10.00 Fair CLR 71.6 69.8 94% 29.94 0.0
04 03:35 Calm 10.00 Fair CLR 71.6 69.8 94% 29.93 0.0
04 03:15 Calm 3.00 Fog/Mist CLR 71.6 69.8 94% 29.93 0.0
04 02:55 Calm 10.00 Fair CLR 71.6 69.8 94% 29.94 0.0
04 02:35 Calm 10.00 Fair CLR 73.4 69.8 89% 29.94 0.0
04 02:15 Calm 2.00 Fog/Mist CLR 73.4 69.8 89% 29.94 0.0
04 01:55 Calm 10.00 Fair CLR 73.4 69.8 89% 29.94 0.0
04 01:35 Calm 10.00 Fair CLR 73.4 69.8 89% 29.94 0.0
04 01:15 Calm 10.00 Fair CLR 73.4 71.6 94% 29.94 0.0
04 00:55 Calm 10.00 Fair CLR 73.4 69.8 89% 29.94 0.0
04 00:35 Calm 10.00 Fair CLR 73.4 69.8 89% 29.94 0.0
04 00:15 Calm 10.00 Fair CLR 73.4 69.8 89% 29.93 0.0
03 23:55 Calm 10.00 Fair CLR 73.4 69.8 89% 29.94 0.0
03 23:35 Calm 10.00 Fair CLR 73.4 71.6 94% 29.94 0.0
03 23:15 Calm 10.00 Fair CLR 73.4 71.6 94% 29.94 0.0
03 22:55 Calm 10.00 Fair CLR 73.4 71.6 94% 29.94 0.0
03 22:35 Calm 10.00 Fair CLR 75.2 71.6 89% 75 29.94 0.0
03 22:15 Calm 10.00 Fair CLR 75.2 71.6 89% 75 29.93 0.0
03 21:55 Calm 10.00 Fair CLR 75.2 71.6 89% 75 29.93 0.0
03 21:35 Calm 10.00 Fair CLR 75.2 71.6 89% 75 29.93 0.0
03 21:15 Calm 10.00 Fair CLR 75.2 71.6 89% 75 29.94 0.0
03 20:55 Calm 10.00 Fair CLR 75.2 71.6 89% 75 29.94 0.0
03 20:35 Calm 10.00 Fair CLR 75.2 71.6 89% 75 29.94 0.0
03 20:15 Calm 10.00 Fair CLR 77 71.6 83% 78 29.93 0.0
03 19:55 Calm 10.00 Fair CLR 77 73.4 89% 78 29.93 0.0
03 19:35 Calm 10.00 Fair CLR 78.8 71.6 79% 82 29.93 0.0
03 19:15 Calm 10.00 Fair CLR 78.8 73.4 84% 82 29.93 0.0
03 18:55 S 5 10.00 Fair CLR 80.6 73.4 79% 85 29.93 0.0
03 18:35 Calm 10.00 Fair CLR 82.4 73.4 74% 88 29.92 0.0
03 18:15 SW 3 10.00 Fair CLR 82.4 71.6 70% 87 29.92 0.0
03 17:55 SW 5 10.00 Fair CLR 82.4 73.4 74% 88 29.93 0.0
03 17:35 S 5 10.00 Fair CLR 80.6 73.4 79% 85 29.93 0.0
03 17:15 Calm 10.00 Partly Cloudy SCT047 SCT060 80.6 73.4 79% 85 29.92 0.0
03 16:55 Calm 10.00 Fair CLR 80.6 71.6 74% 85 29.93 0.0
03 16:35 S 3 10.00 Fair CLR 78.8 71.6 79% 82 29.93 0.0
03 16:15 Calm 10.00 Fair CLR 78.8 73.4 84% 82 29.94 0.0
03 15:55 SW 3 10.00 Mostly Cloudy SCT044 SCT050 BKN080 78.8 71.6 79% 82 29.96 0.0
03 15:35 W 6 10.00 Overcast SCT044 OVC060 78.8 73.4 84% 82 29.98 0.0
03 15:15 W 7 10.00 Light Rain BKN048 OVC055 78.8 73.4 84% 82 29.97 0.0
03 14:55 W 16 G 22 10.00 Overcast BKN050 BKN055 OVC100 89.6 71.6 55% 96 29.97 0.0
03 14:35 Calm 10.00 Mostly Cloudy SCT049 SCT070 BKN090 91.4 71.6 52% 99 29.95 0.0
03 14:15 Calm 10.00 Mostly Cloudy SCT047 SCT055 BKN070 91.4 71.6 52% 99 29.96 0.0
03 13:55 Calm 10.00 Overcast BKN047 OVC055 91.4 73.4 56% 100 29.96 0.0
03 13:35 Calm 10.00 Mostly Cloudy BKN046 BKN055 BKN070 89.6 73.4 59% 98 29.96 0.0
03 13:15 Calm 10.00 Partly Cloudy SCT041 SCT090 91.4 71.6 52% 99 29.97 0.0
03 12:55 E 5 10.00 Partly Cloudy SCT039 91.4 73.4 56% 100 29.98 0.0
03 12:35 NE 3 10.00 Partly Cloudy SCT036 91.4 71.6 52% 99 29.98 0.0
03 12:15 NE 6 10.00 Partly Cloudy SCT034 SCT040 91.4 73.4 56% 100 29.99 0.0
03 11:55 Calm 10.00 Fair CLR 89.6 73.4 59% 98 29.99 0.0
03 11:35 E 3 10.00 Fair CLR 91.4 73.4 56% 100 29.99 0.0
03 11:15 N 5 10.00 Partly Cloudy SCT020 SCT025 SCT060 89.6 73.4 59% 98 29.99 0.0
03 10:55 Calm 10.00 Mostly Cloudy BKN020 BKN027 BKN060 89.6 75.2 63% 100 30 0.0
03 10:35 E 3 10.00 Mostly Cloudy BKN018 89.6 77 67% 103 30.01 0.0
03 10:15 E 3 10.00 Fair CLR 87.8 77 70% 100 30.01 0.0
03 09:55 E 6 10.00 Fair CLR 86 77 75% 97 30.01 0.0
03 09:35 Calm 10.00 Partly Cloudy SCT005 SCT026 84.2 77 79% 94 30.01 0.0
03 09:15 Calm 10.00 Mostly Cloudy BKN003 BKN024 80.6 75.2 84% 86 30.01 0.0
03 08:55 Calm 10.00 Mostly Cloudy BKN001 78.8 77 94% 83 30.01 0.0
03 08:35 Calm 3.00 Fog/Mist OVC001 78.8 75.2 89% 82 30.01 0.0
03 08:15 Calm 2.50 Fog/Mist OVC001 77 75.2 94% 78 30.01 0.0
03 07:55 Calm 7.00 Overcast OVC001 77 73.4 89% 78 30.01 0.0
03 07:35 Calm 5.00 Fog/Mist OVC001 75.2 73.4 94% 74 30 0.0
03 07:15 Calm 7.00 Mostly Cloudy BKN001 75.2 71.6 89% 75 29.99 0.0
03 06:55 Calm 5.00 Fog/Mist SCT001 73.4 71.6 94% 29.99 0.0
03 06:35 Calm 7.00 Partly Cloudy SCT001 75.2 71.6 89% 75 29.98 0.0
03 06:15 Calm 3.00 Fog/Mist BKN001 73.4 71.6 94% 29.98 0.0
03 05:55 Calm 0.50 Fog OVC001 73.4 71.6 94% 29.98 0.0
03 05:35 Calm 4.00 Fog/Mist OVC001 73.4 71.6 94% 29.98 0.0
03 05:15 Calm 5.00 Fog/Mist BKN001 73.4 69.8 89% 29.97 0.0
03 04:55 Calm 7.00 Partly Cloudy SCT001 73.4 71.6 94% 29.97 0.0
03 04:35 Calm 4.00 Fog/Mist CLR 73.4 69.8 89% 29.97 0.0
03 04:15 Calm 3.00 Fog/Mist CLR 73.4 69.8 89% 29.97 0.0
03 03:55 Calm 7.00 Fair CLR 73.4 69.8 89% 29.97 0.0
03 03:35 Calm 1.50 Fog/Mist VV007 73.4 71.6 94% 29.96 0.0
03 03:15 Calm 1.75 Fog/Mist VV007 73.4 71.6 94% 29.96 0.0
03 02:55 Calm 7.00 Fair CLR 75.2 71.6 89% 75 29.96 0.0
03 02:35 Calm 7.00 Fair CLR 75.2 71.6 89% 75 29.97 0.0
03 02:15 Calm 3.00 Fog/Mist CLR 75.2 71.6 89% 75 29.97 0.0
03 01:55 Calm 1.00 Fog/Mist VV007 75.2 71.6 89% 75 29.98 0.0
03 01:35 Calm 7.00 Fair CLR 75.2 73.4 94% 74 29.98 0.0
03 01:15 Calm 10.00 Fair CLR 77 73.4 89% 78 29.98 0.0
03 00:55 Calm 7.00 Fair CLR 75.2 73.4 94% 74 29.99 0.0
03 00:35 Calm 10.00 Fair CLR 77 73.4 89% 78 29.99 0.0
03 00:15 Calm 10.00 Fair CLR 77 73.4 89% 78 29.98 0.0
02 23:55 Calm 10.00 Fair CLR 77 73.4 89% 78 29.98 0.0
02 23:35 Calm 10.00 Fair CLR 77 73.4 89% 78 29.99 0.0
02 23:15 Calm 10.00 Fair CLR 77 73.4 89% 78 29.99 0.0
02 22:55 Calm 10.00 Fair CLR 77 73.4 89% 78 30 0.0
02 22:35 Calm 10.00 Fair CLR 77 73.4 89% 78 30 0.0
02 22:15 Calm 10.00 Fair CLR 77 73.4 89% 78 30 0.0
02 21:55 Calm 10.00 Fair CLR 78.8 75.2 89% 82 30 0.0
02 21:35 Calm 10.00 Fair CLR 78.8 75.2 89% 82 29.99 0.0
02 21:15 Calm 10.00 Fair CLR 78.8 75.2 89% 82 29.98 0.0
02 20:55 Calm 10.00 Fair CLR 78.8 75.2 89% 82 29.97 0.0
02 20:35 Calm 10.00 Fair CLR 80.6 75.2 84% 86 29.97 0.0
02 20:15 Calm 10.00 Fair CLR 78.8 75.2 89% 82 29.97 0.0
02 19:55 Calm 10.00 Fair CLR 80.6 75.2 84% 86 29.97 0.0
02 19:35 Calm 10.00 Fair CLR 80.6 75.2 84% 86 29.96 0.0
02 19:15 Calm 10.00 Fair CLR 82.4 75.2 79% 89 29.97 0.0
02 18:55 Calm 10.00 Fair CLR 84.2 75.2 74% 92 29.97 0.0
02 18:35 Calm 10.00 Fair CLR 84.2 75.2 74% 92 29.97 0.0
02 18:15 Calm 10.00 Fair CLR 84.2 75.2 74% 92 29.97 0.0
02 17:55 Calm 10.00 Fair CLR 86 73.4 66% 93 29.97 0.0
02 17:35 E 3 10.00 Fair CLR 86 73.4 66% 93 29.97 0.0
02 17:15 E 3 10.00 Fair CLR 86 75.2 70% 95 29.97 0.0
02 16:55 E 3 10.00 Fair CLR 84.2 73.4 70% 91 29.97 0.0
02 16:35 E 3 10.00 Fair CLR 84.2 73.4 70% 91 29.99 0.0
02 16:15 E 3 10.00 Fair CLR 84.2 73.4 70% 91 30 0.0
02 15:55 E 5 10.00 Partly Cloudy SCT018 SCT026 SCT050 86 75.2 70% 95 30 0.0
02 15:35 SE 6 10.00 Mostly Cloudy SCT018 SCT026 BKN060 86 75.2 70% 95 30.01 0.0
02 15:15 Calm 10.00 Partly Cloudy SCT060 SCT100 86 73.4 66% 93 30.01 0.0
02 14:55 Calm 10.00 Fair CLR 86 73.4 66% 93 30.01 0.0
02 14:35 Calm 10.00 Partly Cloudy SCT055 SCT100 86 73.4 66% 93 30.01 0.0
02 14:15 SE 3 10.00 Partly Cloudy SCT055 86 73.4 66% 93 30.02 0.0
02 13:55 SW 6 10.00 Fair CLR 87.8 73.4 62% 96 30.01 0.0
02 13:35 S 7 10.00 Fair CLR 87.8 73.4 62% 96 30.01 0.0
02 13:15 S 9 10.00 Fair CLR 87.8 73.4 62% 96 30.01 0.0
02 12:55 SW 10 10.00 Partly Cloudy SCT025 89.6 73.4 59% 98 30.02 0.0
02 12:35 S 5 10.00 Partly Cloudy SCT025 89.6 75.2 63% 100 30.02 0.0
02 12:15 S 7 10.00 Partly Cloudy SCT027 89.6 75.2 63% 100 30.03 0.0
02 11:55 SE 3 10.00 Fair CLR 87.8 77 70% 100 30.04 0.0
02 11:35 Calm 10.00 Fair CLR 87.8 77 70% 100 30.04 0.0
02 11:15 S 5 10.00 Partly Cloudy SCT020 SCT060 SCT070 87.8 77 70% 100 30.04 0.0
02 10:55 S 5 10.00 Mostly Cloudy SCT020 BKN060 BKN070 86 77 75% 97 30.04 0.0
02 10:35 SE 3 10.00 Partly Cloudy SCT016 SCT021 86 77 75% 97 30.04 0.0
02 10:15 SE 5 10.00 Fair CLR 84.2 77 79% 94 30.03 0.0
02 09:55 SE 3 10.00 Fair CLR 84.2 77 79% 94 30.03 0.0
02 09:35 Calm 10.00 Fair CLR 82.4 77 84% 91 30.03 0.0
02 09:15 Calm 10.00 Fair CLR 80.6 77 89% 87 30.03 0.0
02 08:55 Calm 10.00 Fair CLR 80.6 77 89% 87 30.03 0.0
02 08:35 Calm 10.00 Fair CLR 78.8 75.2 89% 82 30.02 0.0
02 08:15 E 3 10.00 Fair CLR 78.8 75.2 89% 82 30.01 0.0
02 07:55 Calm 10.00 Fair CLR 78.8 75.2 89% 82 30.01 0.0 0.01
02 07:35 Calm 10.00 Partly Cloudy SCT031 78.8 75.2 89% 82 30.01 0.0 0.01
02 07:15 Calm 10.00 Mostly Cloudy SCT031 SCT050 BKN060 78.8 75.2 89% 82 29.99 0.0 0.01
02 06:55 SE 3 7.00 Mostly Cloudy SCT024 SCT037 BKN065 78.8 75.2 89% 82 30 0.0
02 06:35 Calm 10.00 Fair CLR 77 75.2 94% 78 30 0.0
02 06:15 E 5 10.00 Partly Cloudy SCT005 77 75.2 94% 78 29.99 0.0
02 05:55 Calm 10.00 Fair CLR 77 75.2 94% 78 29.98 0.0
02 05:35 Calm 10.00 Fair CLR 77 75.2 94% 78 29.98 0.0
02 05:15 SE 3 10.00 Partly Cloudy SCT002 77 75.2 94% 78 29.98 0.0
02 04:55 E 3 10.00 Mostly Cloudy BKN002 77 75.2 94% 78 29.98 0.0
02 04:15 E 3 10.00 Fair CLR 77 75.2 94% 78 29.98 0.0
02 03:55 Calm 10.00 Fair CLR 77 75.2 94% 78 29.98 0.0
02 03:35 Calm 10.00 Fair CLR 77 75.2 94% 78 29.98 0.0
02 03:15 Calm 10.00 Fair CLR 77 75.2 94% 78 29.98 0.0
02 02:55 Calm 10.00 Fair CLR 77 75.2 94% 78 29.98 0.0
02 02:35 Calm 10.00 Fair CLR 77 75.2 94% 78 29.99 0.0
02 02:15 Calm 10.00 Fair CLR 78.8 75.2 89% 82 29.99 0.0
02 01:55 Calm 10.00 Fair CLR 78.8 75.2 89% 82 29.99 0.0
02 01:35 E 3 10.00 Fair CLR 78.8 75.2 89% 82 29.99 0.0
02 01:15 E 3 10.00 Fair CLR 78.8 75.2 89% 82 29.99 0.0
02 00:55 Calm 10.00 Fair CLR 78.8 75.2 89% 82 29.99 0.0
02 00:35 Calm 10.00 Fair CLR 78.8 75.2 89% 82 29.99 0.0
02 00:15 E 3 10.00 Partly Cloudy SCT007 78.8 75.2 89% 82 29.99 0.0
01 23:55 Calm 10.00 Partly Cloudy SCT007 78.8 75.2 89% 82 29.99 0.0
01 23:35 Calm 10.00 Fair CLR 78.8 75.2 89% 82 30 0.0
01 23:15 Calm 10.00 Fair CLR 78.8 75.2 89% 82 30 0.0
01 22:55 Calm 10.00 Partly Cloudy SCT009 78.8 75.2 89% 82 30 0.0
01 22:35 Calm 10.00 Partly Cloudy SCT009 78.8 75.2 89% 82 29.99 0.0
01 22:15 Calm 10.00 Fair CLR 78.8 75.2 89% 82 29.98 0.0
01 21:55 Calm 10.00 Fair CLR 78.8 75.2 89% 82 29.98 0.0
01 21:35 SE 3 10.00 Fair CLR 78.8 75.2 89% 82 29.98 0.0
01 21:15 Calm 10.00 Fair CLR 78.8 75.2 89% 82 29.97 0.0
01 20:55 Calm 10.00 Fair CLR 78.8 75.2 89% 82 29.96 0.0
01 20:35 E 3 10.00 Fair CLR 80.6 75.2 84% 86 29.96 0.0
01 20:15 E 3 10.00 Fair CLR 80.6 75.2 84% 86 29.96 0.0
Date Time (cdt) Wind (mph) Vis. (mi.) Weather Sky Cond. Air Dwpt Max. Min. Relative Humidity Wind Chill (°F) Heat Index (°F) altimeter (in) sea level (mb) 1 hr 3 hr 6 hr
6 hour
Temperature (ºF) Pressure Precipitation (in)